sensor_id;sensor_type;location;lat;lon;timestamp;P1;P2;P0
70691;PMS5003;58267;51.156;17.044;2022-10-26T00:01:41;33;31;
70691;PMS5003;58267;51.156;17.044;2022-10-26T00:04:06;40;39;
70691;PMS5003;58267;51.156;17.044;2022-10-26T00:06:32;28;28;
70691;PMS5003;58267;51.156;17.044;2022-10-26T00:08:57;32;31;
70691;PMS5003;58267;51.156;17.044;2022-10-26T00:11:22;31;30;
70691;PMS5003;58267;51.156;17.044;2022-10-26T00:13:48;40;34;
70691;PMS5003;58267;51.156;17.044;2022-10-26T00:16:14;41;34;
70691;PMS5003;58267;51.156;17.044;2022-10-26T00:18:38;34;33;
70691;PMS5003;58267;51.156;17.044;2022-10-26T00:21:04;37;34;
70691;PMS5003;58267;51.156;17.044;2022-10-26T00:23:30;38;35;
70691;PMS5003;58267;51.156;17.044;2022-10-26T00:25:55;30;29;
70691;PMS5003;58267;51.156;17.044;2022-10-26T00:28:20;36;35;
70691;PMS5003;58267;51.156;17.044;2022-10-26T00:30:45;31;30;
70691;PMS5003;58267;51.156;17.044;2022-10-26T00:33:11;30;30;
70691;PMS5003;58267;51.156;17.044;2022-10-26T00:35:36;33;33;
70691;PMS5003;58267;51.156;17.044;2022-10-26T00:38:02;35;32;
70691;PMS5003;58267;51.156;17.044;2022-10-26T00:40:27;34;32;
70691;PMS5003;58267;51.156;17.044;2022-10-26T00:42:53;30;29;
70691;PMS5003;58267;51.156;17.044;2022-10-26T00:45:20;35;31;
70691;PMS5003;58267;51.156;17.044;2022-10-26T00:47:45;32;27;
70691;PMS5003;58267;51.156;17.044;2022-10-26T00:50:10;28;27;
70691;PMS5003;58267;51.156;17.044;2022-10-26T00:52:35;42;38;
70691;PMS5003;58267;51.156;17.044;2022-10-26T00:55:00;32;32;
70691;PMS5003;58267;51.156;17.044;2022-10-26T00:57:25;32;29;
70691;PMS5003;58267;51.156;17.044;2022-10-26T00:59:51;30;29;
70691;PMS5003;58267;51.156;17.044;2022-10-26T01:02:16;27;27;
70691;PMS5003;58267;51.156;17.044;2022-10-26T01:04:41;35;33;
70691;PMS5003;58267;51.156;17.044;2022-10-26T01:07:07;28;25;
70691;PMS5003;58267;51.156;17.044;2022-10-26T01:09:32;29;26;
70691;PMS5003;58267;51.156;17.044;2022-10-26T01:11:58;27;26;
70691;PMS5003;58267;51.156;17.044;2022-10-26T01:14:23;26;24;
70691;PMS5003;58267;51.156;17.044;2022-10-26T01:16:52;27;26;
70691;PMS5003;58267;51.156;17.044;2022-10-26T01:21:43;27;26;
70691;PMS5003;58267;51.156;17.044;2022-10-26T01:31:23;31;28;
70691;PMS5003;58267;51.156;17.044;2022-10-26T01:33:47;31;31;
70691;PMS5003;58267;51.156;17.044;2022-10-26T01:36:15;27;26;
70691;PMS5003;58267;51.156;17.044;2022-10-26T01:38:41;27;26;
70691;PMS5003;58267;51.156;17.044;2022-10-26T01:41:05;30;28;
70691;PMS5003;58267;51.156;17.044;2022-10-26T01:43:31;32;29;
70691;PMS5003;58267;51.156;17.044;2022-10-26T01:45:55;31;30;
70691;PMS5003;58267;51.156;17.044;2022-10-26T01:48:20;27;24;
70691;PMS5003;58267;51.156;17.044;2022-10-26T01:50:49;34;28;
70691;PMS5003;58267;51.156;17.044;2022-10-26T01:53:12;29;26;
70691;PMS5003;58267;51.156;17.044;2022-10-26T01:55:38;28;27;
70691;PMS5003;58267;51.156;17.044;2022-10-26T01:58:03;29;28;
70691;PMS5003;58267;51.156;17.044;2022-10-26T02:00:28;28;27;
70691;PMS5003;58267;51.156;17.044;2022-10-26T02:02:53;28;25;
70691;PMS5003;58267;51.156;17.044;2022-10-26T02:05:22;34;32;
70691;PMS5003;58267;51.156;17.044;2022-10-26T02:07:46;28;27;
70691;PMS5003;58267;51.156;17.044;2022-10-26T02:10:09;31;28;
70691;PMS5003;58267;51.156;17.044;2022-10-26T02:12:37;35;34;
70691;PMS5003;58267;51.156;17.044;2022-10-26T02:15:01;30;26;
70691;PMS5003;58267;51.156;17.044;2022-10-26T02:17:26;29;28;
70691;PMS5003;58267;51.156;17.044;2022-10-26T02:19:50;34;33;
70691;PMS5003;58267;51.156;17.044;2022-10-26T02:22:17;35;33;
70691;PMS5003;58267;51.156;17.044;2022-10-26T02:24:41;35;32;
70691;PMS5003;58267;51.156;17.044;2022-10-26T02:27:07;31;29;
70691;PMS5003;58267;51.156;17.044;2022-10-26T02:29:32;31;29;
70691;PMS5003;58267;51.156;17.044;2022-10-26T02:31:57;27;27;
70691;PMS5003;58267;51.156;17.044;2022-10-26T02:34:23;36;32;
70691;PMS5003;58267;51.156;17.044;2022-10-26T02:36:48;31;28;
70691;PMS5003;58267;51.156;17.044;2022-10-26T02:39:13;35;30;
70691;PMS5003;58267;51.156;17.044;2022-10-26T02:41:39;30;28;
70691;PMS5003;58267;51.156;17.044;2022-10-26T02:44:04;30;28;
70691;PMS5003;58267;51.156;17.044;2022-10-26T02:46:29;25;24;
70691;PMS5003;58267;51.156;17.044;2022-10-26T02:48:55;28;27;
70691;PMS5003;58267;51.156;17.044;2022-10-26T02:51:22;32;32;
70691;PMS5003;58267;51.156;17.044;2022-10-26T02:53:48;33;31;
70691;PMS5003;58267;51.156;17.044;2022-10-26T02:56:13;30;27;
70691;PMS5003;58267;51.156;17.044;2022-10-26T02:58:38;26;25;
70691;PMS5003;58267;51.156;17.044;2022-10-26T03:01:02;29;28;
70691;PMS5003;58267;51.156;17.044;2022-10-26T03:03:27;26;26;
70691;PMS5003;58267;51.156;17.044;2022-10-26T03:05:53;33;32;
70691;PMS5003;58267;51.156;17.044;2022-10-26T03:08:19;31;28;
70691;PMS5003;58267;51.156;17.044;2022-10-26T03:10:44;28;26;
70691;PMS5003;58267;51.156;17.044;2022-10-26T03:13:10;26;26;
70691;PMS5003;58267;51.156;17.044;2022-10-26T03:15:35;28;28;
70691;PMS5003;58267;51.156;17.044;2022-10-26T03:18:00;29;28;
70691;PMS5003;58267;51.156;17.044;2022-10-26T03:20:26;29;28;
70691;PMS5003;58267;51.156;17.044;2022-10-26T03:22:51;29;28;
70691;PMS5003;58267;51.156;17.044;2022-10-26T03:25:17;27;27;
70691;PMS5003;58267;51.156;17.044;2022-10-26T03:27:42;34;30;
70691;PMS5003;58267;51.156;17.044;2022-10-26T03:30:08;27;26;
70691;PMS5003;58267;51.156;17.044;2022-10-26T03:32:33;28;27;
70691;PMS5003;58267;51.156;17.044;2022-10-26T03:34:59;28;28;
70691;PMS5003;58267;51.156;17.044;2022-10-26T03:37:24;30;28;
70691;PMS5003;58267;51.156;17.044;2022-10-26T03:39:49;34;33;
70691;PMS5003;58267;51.156;17.044;2022-10-26T03:42:15;38;37;
70691;PMS5003;58267;51.156;17.044;2022-10-26T03:44:41;30;29;
70691;PMS5003;58267;51.156;17.044;2022-10-26T03:47:06;35;32;
70691;PMS5003;58267;51.156;17.044;2022-10-26T03:49:31;38;34;
70691;PMS5003;58267;51.156;17.044;2022-10-26T03:51:56;32;30;
70691;PMS5003;58267;51.156;17.044;2022-10-26T03:54:22;35;33;
70691;PMS5003;58267;51.156;17.044;2022-10-26T03:56:47;36;33;
70691;PMS5003;58267;51.156;17.044;2022-10-26T03:59:13;29;29;
70691;PMS5003;58267;51.156;17.044;2022-10-26T04:01:38;35;33;
70691;PMS5003;58267;51.156;17.044;2022-10-26T04:04:04;39;35;
70691;PMS5003;58267;51.156;17.044;2022-10-26T04:06:30;38;37;
70691;PMS5003;58267;51.156;17.044;2022-10-26T04:08:56;38;36;
70691;PMS5003;58267;51.156;17.044;2022-10-26T04:11:21;36;32;
70691;PMS5003;58267;51.156;17.044;2022-10-26T04:13:47;37;35;
70691;PMS5003;58267;51.156;17.044;2022-10-26T04:16:12;34;33;
70691;PMS5003;58267;51.156;17.044;2022-10-26T04:18:37;32;30;
70691;PMS5003;58267;51.156;17.044;2022-10-26T04:21:03;31;30;
70691;PMS5003;58267;51.156;17.044;2022-10-26T04:23:29;27;25;
70691;PMS5003;58267;51.156;17.044;2022-10-26T04:25:54;40;34;
70691;PMS5003;58267;51.156;17.044;2022-10-26T04:28:19;36;34;
70691;PMS5003;58267;51.156;17.044;2022-10-26T04:30:46;42;39;
70691;PMS5003;58267;51.156;17.044;2022-10-26T04:33:09;34;33;
70691;PMS5003;58267;51.156;17.044;2022-10-26T04:35:35;33;31;
70691;PMS5003;58267;51.156;17.044;2022-10-26T04:38:01;29;29;
70691;PMS5003;58267;51.156;17.044;2022-10-26T04:40:26;28;28;
70691;PMS5003;58267;51.156;17.044;2022-10-26T04:42:51;36;33;
70691;PMS5003;58267;51.156;17.044;2022-10-26T04:45:16;31;30;
70691;PMS5003;58267;51.156;17.044;2022-10-26T04:47:42;30;29;
70691;PMS5003;58267;51.156;17.044;2022-10-26T04:50:08;30;27;
70691;PMS5003;58267;51.156;17.044;2022-10-26T04:52:32;35;32;
70691;PMS5003;58267;51.156;17.044;2022-10-26T04:54:58;30;29;
70691;PMS5003;58267;51.156;17.044;2022-10-26T04:57:23;31;30;
70691;PMS5003;58267;51.156;17.044;2022-10-26T04:59:50;34;33;
70691;PMS5003;58267;51.156;17.044;2022-10-26T05:02:15;28;27;
70691;PMS5003;58267;51.156;17.044;2022-10-26T05:04:41;31;29;
70691;PMS5003;58267;51.156;17.044;2022-10-26T05:07:06;35;33;
70691;PMS5003;58267;51.156;17.044;2022-10-26T05:09:31;29;27;
70691;PMS5003;58267;51.156;17.044;2022-10-26T05:11:56;38;36;
70691;PMS5003;58267;51.156;17.044;2022-10-26T05:14:22;34;33;
70691;PMS5003;58267;51.156;17.044;2022-10-26T05:16:49;29;29;
70691;PMS5003;58267;51.156;17.044;2022-10-26T05:19:13;37;35;
70691;PMS5003;58267;51.156;17.044;2022-10-26T05:21:38;30;27;
70691;PMS5003;58267;51.156;17.044;2022-10-26T05:24:04;31;29;
70691;PMS5003;58267;51.156;17.044;2022-10-26T05:26:29;36;35;
70691;PMS5003;58267;51.156;17.044;2022-10-26T05:28:54;31;30;
70691;PMS5003;58267;51.156;17.044;2022-10-26T05:31:20;31;30;
70691;PMS5003;58267;51.156;17.044;2022-10-26T05:33:47;33;30;
70691;PMS5003;58267;51.156;17.044;2022-10-26T05:36:11;38;37;
70691;PMS5003;58267;51.156;17.044;2022-10-26T05:38:36;31;31;
70691;PMS5003;58267;51.156;17.044;2022-10-26T05:41:01;33;33;
70691;PMS5003;58267;51.156;17.044;2022-10-26T05:43:27;31;29;
70691;PMS5003;58267;51.156;17.044;2022-10-26T05:45:54;23;20;
70691;PMS5003;58267;51.156;17.044;2022-10-26T05:48:19;33;31;
70691;PMS5003;58267;51.156;17.044;2022-10-26T05:50:45;27;27;
70691;PMS5003;58267;51.156;17.044;2022-10-26T05:53:10;36;32;
70691;PMS5003;58267;51.156;17.044;2022-10-26T05:55:35;36;34;
70691;PMS5003;58267;51.156;17.044;2022-10-26T05:58:01;33;31;
70691;PMS5003;58267;51.156;17.044;2022-10-26T06:00:27;32;31;
70691;PMS5003;58267;51.156;17.044;2022-10-26T06:02:57;34;33;
70691;PMS5003;58267;51.156;17.044;2022-10-26T06:05:17;44;40;
70691;PMS5003;58267;51.156;17.044;2022-10-26T06:07:43;43;39;
70691;PMS5003;58267;51.156;17.044;2022-10-26T06:10:09;39;39;
70691;PMS5003;58267;51.156;17.044;2022-10-26T06:12:34;39;38;
70691;PMS5003;58267;51.156;17.044;2022-10-26T06:15:00;40;38;
70691;PMS5003;58267;51.156;17.044;2022-10-26T06:17:30;45;44;
70691;PMS5003;58267;51.156;17.044;2022-10-26T06:19:56;48;47;
70691;PMS5003;58267;51.156;17.044;2022-10-26T06:22:19;45;45;
70691;PMS5003;58267;51.156;17.044;2022-10-26T06:24:43;52;49;
70691;PMS5003;58267;51.156;17.044;2022-10-26T06:27:10;51;48;
70691;PMS5003;58267;51.156;17.044;2022-10-26T06:29:39;48;44;
70691;PMS5003;58267;51.156;17.044;2022-10-26T06:31:59;45;43;
70691;PMS5003;58267;51.156;17.044;2022-10-26T06:34:25;48;46;
70691;PMS5003;58267;51.156;17.044;2022-10-26T06:36:49;52;50;
70691;PMS5003;58267;51.156;17.044;2022-10-26T06:39:15;51;49;
70691;PMS5003;58267;51.156;17.044;2022-10-26T06:41:41;47;46;
70691;PMS5003;58267;51.156;17.044;2022-10-26T06:44:08;45;44;
70691;PMS5003;58267;51.156;17.044;2022-10-26T06:46:35;48;45;
70691;PMS5003;58267;51.156;17.044;2022-10-26T06:48:59;49;47;
70691;PMS5003;58267;51.156;17.044;2022-10-26T06:51:23;47;47;
70691;PMS5003;58267;51.156;17.044;2022-10-26T06:53:50;53;50;
70691;PMS5003;58267;51.156;17.044;2022-10-26T06:56:13;46;43;
70691;PMS5003;58267;51.156;17.044;2022-10-26T06:58:39;51;50;
70691;PMS5003;58267;51.156;17.044;2022-10-26T07:01:04;56;52;
70691;PMS5003;58267;51.156;17.044;2022-10-26T07:03:30;58;55;
70691;PMS5003;58267;51.156;17.044;2022-10-26T07:05:55;58;54;
70691;PMS5003;58267;51.156;17.044;2022-10-26T07:08:21;57;57;
70691;PMS5003;58267;51.156;17.044;2022-10-26T07:10:46;59;58;
70691;PMS5003;58267;51.156;17.044;2022-10-26T07:13:12;54;52;
70691;PMS5003;58267;51.156;17.044;2022-10-26T07:15:37;61;57;
70691;PMS5003;58267;51.156;17.044;2022-10-26T07:18:03;64;59;
70691;PMS5003;58267;51.156;17.044;2022-10-26T07:20:30;51;45;
70691;PMS5003;58267;51.156;17.044;2022-10-26T07:22:55;65;57;
70691;PMS5003;58267;51.156;17.044;2022-10-26T07:25:21;62;59;
70691;PMS5003;58267;51.156;17.044;2022-10-26T07:27:46;59;58;
70691;PMS5003;58267;51.156;17.044;2022-10-26T07:30:12;62;53;
70691;PMS5003;58267;51.156;17.044;2022-10-26T07:32:37;60;58;
70691;PMS5003;58267;51.156;17.044;2022-10-26T07:35:02;56;54;
70691;PMS5003;58267;51.156;17.044;2022-10-26T07:37:28;63;59;
70691;PMS5003;58267;51.156;17.044;2022-10-26T07:39:55;69;64;
70691;PMS5003;58267;51.156;17.044;2022-10-26T07:42:20;65;61;
70691;PMS5003;58267;51.156;17.044;2022-10-26T07:44:45;64;62;
70691;PMS5003;58267;51.156;17.044;2022-10-26T07:47:11;72;68;
70691;PMS5003;58267;51.156;17.044;2022-10-26T07:49:37;68;60;
70691;PMS5003;58267;51.156;17.044;2022-10-26T07:52:02;59;56;
70691;PMS5003;58267;51.156;17.044;2022-10-26T07:54:28;70;66;
70691;PMS5003;58267;51.156;17.044;2022-10-26T07:56:53;62;58;
70691;PMS5003;58267;51.156;17.044;2022-10-26T07:59:18;58;56;
70691;PMS5003;58267;51.156;17.044;2022-10-26T08:01:44;58;56;
70691;PMS5003;58267;51.156;17.044;2022-10-26T08:04:09;56;53;
70691;PMS5003;58267;51.156;17.044;2022-10-26T08:06:35;50;49;
70691;PMS5003;58267;51.156;17.044;2022-10-26T08:09:00;56;52;
70691;PMS5003;58267;51.156;17.044;2022-10-26T08:11:26;46;46;
70691;PMS5003;58267;51.156;17.044;2022-10-26T08:13:51;54;52;
70691;PMS5003;58267;51.156;17.044;2022-10-26T08:16:16;59;52;
70691;PMS5003;58267;51.156;17.044;2022-10-26T08:18:42;50;48;
70691;PMS5003;58267;51.156;17.044;2022-10-26T08:21:09;52;49;
70691;PMS5003;58267;51.156;17.044;2022-10-26T08:23:33;54;51;
70691;PMS5003;58267;51.156;17.044;2022-10-26T08:25:59;52;48;
70691;PMS5003;58267;51.156;17.044;2022-10-26T08:28:24;60;53;
70691;PMS5003;58267;51.156;17.044;2022-10-26T08:30:51;54;51;
70691;PMS5003;58267;51.156;17.044;2022-10-26T08:33:16;51;49;
70691;PMS5003;58267;51.156;17.044;2022-10-26T08:35:42;45;43;
70691;PMS5003;58267;51.156;17.044;2022-10-26T08:38:08;44;43;
70691;PMS5003;58267;51.156;17.044;2022-10-26T08:40:34;48;46;
70691;PMS5003;58267;51.156;17.044;2022-10-26T08:42:59;54;52;
70691;PMS5003;58267;51.156;17.044;2022-10-26T08:45:25;49;47;
70691;PMS5003;58267;51.156;17.044;2022-10-26T08:47:49;55;50;
70691;PMS5003;58267;51.156;17.044;2022-10-26T08:50:16;50;48;
70691;PMS5003;58267;51.156;17.044;2022-10-26T08:52:40;55;50;
70691;PMS5003;58267;51.156;17.044;2022-10-26T08:55:06;56;54;
70691;PMS5003;58267;51.156;17.044;2022-10-26T08:57:32;60;57;
70691;PMS5003;58267;51.156;17.044;2022-10-26T08:59:58;55;51;
70691;PMS5003;58267;51.156;17.044;2022-10-26T09:02:22;45;44;
70691;PMS5003;58267;51.156;17.044;2022-10-26T09:04:47;55;51;
70691;PMS5003;58267;51.156;17.044;2022-10-26T09:07:17;48;46;
70691;PMS5003;58267;51.156;17.044;2022-10-26T09:09:41;46;44;
70691;PMS5003;58267;51.156;17.044;2022-10-26T09:12:05;50;46;
70691;PMS5003;58267;51.156;17.044;2022-10-26T09:14:32;44;44;
70691;PMS5003;58267;51.156;17.044;2022-10-26T09:16:56;46;43;
70691;PMS5003;58267;51.156;17.044;2022-10-26T09:19:25;46;43;
70691;PMS5003;58267;51.156;17.044;2022-10-26T09:21:47;43;40;
70691;PMS5003;58267;51.156;17.044;2022-10-26T09:24:12;43;39;
70691;PMS5003;58267;51.156;17.044;2022-10-26T09:26:37;45;44;
70691;PMS5003;58267;51.156;17.044;2022-10-26T09:29:02;40;39;
70691;PMS5003;58267;51.156;17.044;2022-10-26T09:31:27;38;38;
70691;PMS5003;58267;51.156;17.044;2022-10-26T09:33:53;42;41;
70691;PMS5003;58267;51.156;17.044;2022-10-26T09:36:19;37;36;
70691;PMS5003;58267;51.156;17.044;2022-10-26T09:38:44;40;36;
70691;PMS5003;58267;51.156;17.044;2022-10-26T09:41:19;36;35;
70691;PMS5003;58267;51.156;17.044;2022-10-26T09:43:36;36;33;
70691;PMS5003;58267;51.156;17.044;2022-10-26T09:45:59;36;34;
70691;PMS5003;58267;51.156;17.044;2022-10-26T09:48:26;32;30;
70691;PMS5003;58267;51.156;17.044;2022-10-26T09:50:51;30;28;
70691;PMS5003;58267;51.156;17.044;2022-10-26T09:53:17;34;32;
70691;PMS5003;58267;51.156;17.044;2022-10-26T09:55:43;27;27;
70691;PMS5003;58267;51.156;17.044;2022-10-26T09:58:10;23;23;
70691;PMS5003;58267;51.156;17.044;2022-10-26T10:00:34;25;23;
70691;PMS5003;58267;51.156;17.044;2022-10-26T10:02:59;25;24;
70691;PMS5003;58267;51.156;17.044;2022-10-26T10:05:26;23;23;
70691;PMS5003;58267;51.156;17.044;2022-10-26T10:07:51;22;21;
70691;PMS5003;58267;51.156;17.044;2022-10-26T10:10:18;27;25;
70691;PMS5003;58267;51.156;17.044;2022-10-26T10:12:43;26;22;
70691;PMS5003;58267;51.156;17.044;2022-10-26T10:17:33;26;25;
70691;PMS5003;58267;51.156;17.044;2022-10-26T10:22:25;24;23;
70691;PMS5003;58267;51.156;17.044;2022-10-26T10:24:52;24;21;
70691;PMS5003;58267;51.156;17.044;2022-10-26T10:27:16;22;21;
70691;PMS5003;58267;51.156;17.044;2022-10-26T10:29:41;20;19;
70691;PMS5003;58267;51.156;17.044;2022-10-26T10:32:10;20;18;
70691;PMS5003;58267;51.156;17.044;2022-10-26T10:34:31;19;19;
70691;PMS5003;58267;51.156;17.044;2022-10-26T10:36:56;19;18;
70691;PMS5003;58267;51.156;17.044;2022-10-26T10:39:32;18;18;
70691;PMS5003;58267;51.156;17.044;2022-10-26T10:41:48;20;20;
70691;PMS5003;58267;51.156;17.044;2022-10-26T10:44:15;24;21;
70691;PMS5003;58267;51.156;17.044;2022-10-26T10:46:39;20;19;
70691;PMS5003;58267;51.156;17.044;2022-10-26T10:49:05;23;22;
70691;PMS5003;58267;51.156;17.044;2022-10-26T10:51:30;18;18;
70691;PMS5003;58267;51.156;17.044;2022-10-26T10:53:55;18;17;
70691;PMS5003;58267;51.156;17.044;2022-10-26T10:58:48;16;15;
70691;PMS5003;58267;51.156;17.044;2022-10-26T11:01:11;16;16;
70691;PMS5003;58267;51.156;17.044;2022-10-26T11:03:38;18;17;
70691;PMS5003;58267;51.156;17.044;2022-10-26T11:06:03;16;15;
70691;PMS5003;58267;51.156;17.044;2022-10-26T11:08:27;17;16;
70691;PMS5003;58267;51.156;17.044;2022-10-26T11:10:53;18;18;
70691;PMS5003;58267;51.156;17.044;2022-10-26T11:13:18;15;14;
70691;PMS5003;58267;51.156;17.044;2022-10-26T11:15:43;13;12;
70691;PMS5003;58267;51.156;17.044;2022-10-26T11:18:11;13;13;
70691;PMS5003;58267;51.156;17.044;2022-10-26T11:20:35;19;18;
70691;PMS5003;58267;51.156;17.044;2022-10-26T11:23:00;15;13;
70691;PMS5003;58267;51.156;17.044;2022-10-26T11:25:26;13;13;
70691;PMS5003;58267;51.156;17.044;2022-10-26T11:27:50;14;13;
70691;PMS5003;58267;51.156;17.044;2022-10-26T11:30:17;16;14;
70691;PMS5003;58267;51.156;17.044;2022-10-26T11:32:42;15;14;
70691;PMS5003;58267;51.156;17.044;2022-10-26T11:35:10;13;12;
70691;PMS5003;58267;51.156;17.044;2022-10-26T11:37:33;12;12;
70691;PMS5003;58267;51.156;17.044;2022-10-26T11:40:00;13;13;
70691;PMS5003;58267;51.156;17.044;2022-10-26T11:42:23;11;11;
70691;PMS5003;58267;51.156;17.044;2022-10-26T11:44:49;16;15;
70691;PMS5003;58267;51.156;17.044;2022-10-26T11:47:13;10;10;
70691;PMS5003;58267;51.156;17.044;2022-10-26T11:49:40;13;11;
70691;PMS5003;58267;51.156;17.044;2022-10-26T11:52:05;13;13;
70691;PMS5003;58267;51.156;17.044;2022-10-26T11:54:29;12;10;
70691;PMS5003;58267;51.156;17.044;2022-10-26T11:56:54;12;12;
70691;PMS5003;58267;51.156;17.044;2022-10-26T11:59:20;12;11;
70691;PMS5003;58267;51.156;17.044;2022-10-26T12:01:45;11;10;
70691;PMS5003;58267;51.156;17.044;2022-10-26T12:04:09;9;9;
70691;PMS5003;58267;51.156;17.044;2022-10-26T12:06:35;10;9;
70691;PMS5003;58267;51.156;17.044;2022-10-26T12:09:02;9;9;
70691;PMS5003;58267;51.156;17.044;2022-10-26T12:11:30;9;9;
70691;PMS5003;58267;51.156;17.044;2022-10-26T12:13:51;7;7;
70691;PMS5003;58267;51.156;17.044;2022-10-26T12:16:16;9;9;
70691;PMS5003;58267;51.156;17.044;2022-10-26T12:18:41;10;10;
70691;PMS5003;58267;51.156;17.044;2022-10-26T12:21:06;9;9;
70691;PMS5003;58267;51.156;17.044;2022-10-26T12:23:32;8;8;
70691;PMS5003;58267;51.156;17.044;2022-10-26T12:30:46;6;6;
70691;PMS5003;58267;51.156;17.044;2022-10-26T12:35:38;8;8;
70691;PMS5003;58267;51.156;17.044;2022-10-26T12:42:52;9;9;
70691;PMS5003;58267;51.156;17.044;2022-10-26T12:45:20;7;7;
70691;PMS5003;58267;51.156;17.044;2022-10-26T12:52:34;9;9;
70691;PMS5003;58267;51.156;17.044;2022-10-26T12:55:03;7;7;
70691;PMS5003;58267;51.156;17.044;2022-10-26T12:57:24;6;6;
70691;PMS5003;58267;51.156;17.044;2022-10-26T12:59:49;5;5;
70691;PMS5003;58267;51.156;17.044;2022-10-26T13:02:22;6;6;
70691;PMS5003;58267;51.156;17.044;2022-10-26T13:04:46;7;6;
70691;PMS5003;58267;51.156;17.044;2022-10-26T13:09:29;7;6;
70691;PMS5003;58267;51.156;17.044;2022-10-26T13:11:54;8;8;
70691;PMS5003;58267;51.156;17.044;2022-10-26T13:14:20;7;7;
70691;PMS5003;58267;51.156;17.044;2022-10-26T13:16:44;7;6;
70691;PMS5003;58267;51.156;17.044;2022-10-26T13:21:39;7;6;
70691;PMS5003;58267;51.156;17.044;2022-10-26T13:24:00;10;9;
70691;PMS5003;58267;51.156;17.044;2022-10-26T13:26:25;10;10;
70691;PMS5003;58267;51.156;17.044;2022-10-26T13:28:50;9;9;
70691;PMS5003;58267;51.156;17.044;2022-10-26T13:33:40;9;9;
70691;PMS5003;58267;51.156;17.044;2022-10-26T13:36:13;9;9;
70691;PMS5003;58267;51.156;17.044;2022-10-26T13:38:31;7;7;
70691;PMS5003;58267;51.156;17.044;2022-10-26T13:40:59;9;8;
70691;PMS5003;58267;51.156;17.044;2022-10-26T13:43:21;8;7;
70691;PMS5003;58267;51.156;17.044;2022-10-26T13:45:48;6;6;
70691;PMS5003;58267;51.156;17.044;2022-10-26T13:48:12;6;6;
70691;PMS5003;58267;51.156;17.044;2022-10-26T13:50:45;5;5;
70691;PMS5003;58267;51.156;17.044;2022-10-26T13:53:04;7;7;
70691;PMS5003;58267;51.156;17.044;2022-10-26T13:55:28;7;7;
70691;PMS5003;58267;51.156;17.044;2022-10-26T13:57:59;6;6;
70691;PMS5003;58267;51.156;17.044;2022-10-26T14:00:18;7;6;
70691;PMS5003;58267;51.156;17.044;2022-10-26T14:02:42;8;8;
70691;PMS5003;58267;51.156;17.044;2022-10-26T14:05:09;4;4;
70691;PMS5003;58267;51.156;17.044;2022-10-26T14:07:33;6;6;
70691;PMS5003;58267;51.156;17.044;2022-10-26T14:09:58;5;5;
70691;PMS5003;58267;51.156;17.044;2022-10-26T14:12:24;6;6;
70691;PMS5003;58267;51.156;17.044;2022-10-26T14:14:48;6;5;
70691;PMS5003;58267;51.156;17.044;2022-10-26T14:17:17;8;7;
70691;PMS5003;58267;51.156;17.044;2022-10-26T14:19:39;9;9;
70691;PMS5003;58267;51.156;17.044;2022-10-26T14:22:04;8;8;
70691;PMS5003;58267;51.156;17.044;2022-10-26T14:24:30;7;7;
70691;PMS5003;58267;51.156;17.044;2022-10-26T14:26:54;9;9;
70691;PMS5003;58267;51.156;17.044;2022-10-26T14:29:20;10;10;
70691;PMS5003;58267;51.156;17.044;2022-10-26T14:31:45;16;16;
70691;PMS5003;58267;51.156;17.044;2022-10-26T14:34:10;12;11;
70691;PMS5003;58267;51.156;17.044;2022-10-26T14:36:36;13;12;
70691;PMS5003;58267;51.156;17.044;2022-10-26T14:39:02;14;13;
70691;PMS5003;58267;51.156;17.044;2022-10-26T14:41:26;10;9;
70691;PMS5003;58267;51.156;17.044;2022-10-26T14:43:51;9;9;
70691;PMS5003;58267;51.156;17.044;2022-10-26T14:46:17;10;9;
70691;PMS5003;58267;51.156;17.044;2022-10-26T14:48:48;10;10;
70691;PMS5003;58267;51.156;17.044;2022-10-26T14:51:08;12;12;
70691;PMS5003;58267;51.156;17.044;2022-10-26T14:53:34;11;11;
70691;PMS5003;58267;51.156;17.044;2022-10-26T14:55:58;9;9;
70691;PMS5003;58267;51.156;17.044;2022-10-26T14:58:25;12;12;
70691;PMS5003;58267;51.156;17.044;2022-10-26T15:03:15;16;14;
70691;PMS5003;58267;51.156;17.044;2022-10-26T15:05:40;14;14;
70691;PMS5003;58267;51.156;17.044;2022-10-26T15:12:56;11;10;
70691;PMS5003;58267;51.156;17.044;2022-10-26T15:15:22;10;10;
70691;PMS5003;58267;51.156;17.044;2022-10-26T15:17:48;9;9;
70691;PMS5003;58267;51.156;17.044;2022-10-26T15:20:14;9;8;
70691;PMS5003;58267;51.156;17.044;2022-10-26T15:22:37;8;8;
70691;PMS5003;58267;51.156;17.044;2022-10-26T15:25:03;9;8;
70691;PMS5003;58267;51.156;17.044;2022-10-26T15:27:27;9;9;
70691;PMS5003;58267;51.156;17.044;2022-10-26T15:32:26;9;9;
70691;PMS5003;58267;51.156;17.044;2022-10-26T15:34:46;10;9;
70691;PMS5003;58267;51.156;17.044;2022-10-26T15:37:08;10;10;
70691;PMS5003;58267;51.156;17.044;2022-10-26T15:39:34;8;8;
70691;PMS5003;58267;51.156;17.044;2022-10-26T15:41:59;10;10;
70691;PMS5003;58267;51.156;17.044;2022-10-26T15:44:24;11;9;
70691;PMS5003;58267;51.156;17.044;2022-10-26T15:46:49;10;9;
70691;PMS5003;58267;51.156;17.044;2022-10-26T15:49:16;11;11;
70691;PMS5003;58267;51.156;17.044;2022-10-26T15:51:40;8;8;
70691;PMS5003;58267;51.156;17.044;2022-10-26T15:54:05;11;9;
70691;PMS5003;58267;51.156;17.044;2022-10-26T15:56:30;10;10;
70691;PMS5003;58267;51.156;17.044;2022-10-26T15:58:56;9;9;
70691;PMS5003;58267;51.156;17.044;2022-10-26T16:01:22;11;11;
70691;PMS5003;58267;51.156;17.044;2022-10-26T16:03:47;13;12;
70691;PMS5003;58267;51.156;17.044;2022-10-26T16:06:14;16;13;
70691;PMS5003;58267;51.156;17.044;2022-10-26T16:08:37;14;14;
70691;PMS5003;58267;51.156;17.044;2022-10-26T16:11:02;10;10;
70691;PMS5003;58267;51.156;17.044;2022-10-26T16:13:28;15;13;
70691;PMS5003;58267;51.156;17.044;2022-10-26T16:15:53;10;10;
70691;PMS5003;58267;51.156;17.044;2022-10-26T16:18:18;12;12;
70691;PMS5003;58267;51.156;17.044;2022-10-26T16:20:44;9;9;
70691;PMS5003;58267;51.156;17.044;2022-10-26T16:23:08;13;10;
70691;PMS5003;58267;51.156;17.044;2022-10-26T16:25:38;15;13;
70691;PMS5003;58267;51.156;17.044;2022-10-26T16:28:00;36;35;
70691;PMS5003;58267;51.156;17.044;2022-10-26T16:30:25;16;16;
70691;PMS5003;58267;51.156;17.044;2022-10-26T16:32:51;7;7;
70691;PMS5003;58267;51.156;17.044;2022-10-26T16:35:17;21;20;
70691;PMS5003;58267;51.156;17.044;2022-10-26T16:37:44;43;43;
70691;PMS5003;58267;51.156;17.044;2022-10-26T16:40:08;37;37;
70691;PMS5003;58267;51.156;17.044;2022-10-26T16:42:33;26;24;
70691;PMS5003;58267;51.156;17.044;2022-10-26T16:44:58;15;14;